sensor_id;sensor_type;location;lat;lon;timestamp;P1;durP1;ratioP1;P2;durP2;ratioP2
72676;SDS011;60755;51.374;10.662;2023-07-20T00:01:05;6.38;;;5.78;;
72676;SDS011;60755;51.374;10.662;2023-07-20T00:03:32;6.82;;;6.22;;
72676;SDS011;60755;51.374;10.662;2023-07-20T00:05:59;6.50;;;6.00;;
72676;SDS011;60755;51.374;10.662;2023-07-20T00:08:26;9.23;;;6.75;;
72676;SDS011;60755;51.374;10.662;2023-07-20T00:10:55;7.30;;;6.65;;
72676;SDS011;60755;51.374;10.662;2023-07-20T00:13:22;6.47;;;5.95;;
72676;SDS011;60755;51.374;10.662;2023-07-20T00:15:50;6.75;;;6.15;;
72676;SDS011;60755;51.374;10.662;2023-07-20T00:18:18;6.13;;;5.63;;
72676;SDS011;60755;51.374;10.662;2023-07-20T00:20:46;8.50;;;6.40;;
72676;SDS011;60755;51.374;10.662;2023-07-20T00:23:13;6.80;;;6.18;;
72676;SDS011;60755;51.374;10.662;2023-07-20T00:25:40;6.78;;;6.18;;
72676;SDS011;60755;51.374;10.662;2023-07-20T00:28:07;6.43;;;5.88;;
72676;SDS011;60755;51.374;10.662;2023-07-20T00:30:34;6.57;;;5.93;;
72676;SDS011;60755;51.374;10.662;2023-07-20T00:33:03;6.50;;;6.00;;
72676;SDS011;60755;51.374;10.662;2023-07-20T00:35:30;6.93;;;6.43;;
72676;SDS011;60755;51.374;10.662;2023-07-20T00:37:57;8.02;;;7.43;;
72676;SDS011;60755;51.374;10.662;2023-07-20T00:40:24;9.75;;;8.77;;
72676;SDS011;60755;51.374;10.662;2023-07-20T00:42:52;10.05;;;9.05;;
72676;SDS011;60755;51.374;10.662;2023-07-20T00:45:23;7.30;;;6.70;;
72676;SDS011;60755;51.374;10.662;2023-07-20T00:47:52;6.75;;;6.25;;
72676;SDS011;60755;51.374;10.662;2023-07-20T00:50:20;6.32;;;5.72;;
72676;SDS011;60755;51.374;10.662;2023-07-20T00:52:48;8.27;;;7.57;;
72676;SDS011;60755;51.374;10.662;2023-07-20T00:55:18;9.20;;;8.38;;
72676;SDS011;60755;51.374;10.662;2023-07-20T00:57:45;10.38;;;9.40;;
72676;SDS011;60755;51.374;10.662;2023-07-20T01:00:13;10.45;;;9.48;;
72676;SDS011;60755;51.374;10.662;2023-07-20T01:02:40;11.50;;;9.55;;
72676;SDS011;60755;51.374;10.662;2023-07-20T01:05:08;11.43;;;10.05;;
72676;SDS011;60755;51.374;10.662;2023-07-20T01:07:40;11.18;;;9.70;;
72676;SDS011;60755;51.374;10.662;2023-07-20T01:10:15;13.43;;;10.82;;
72676;SDS011;60755;51.374;10.662;2023-07-20T01:12:46;11.85;;;10.70;;
72676;SDS011;60755;51.374;10.662;2023-07-20T01:15:15;12.95;;;11.65;;
72676;SDS011;60755;51.374;10.662;2023-07-20T01:17:42;13.02;;;11.73;;
72676;SDS011;60755;51.374;10.662;2023-07-20T01:20:12;12.93;;;11.80;;
72676;SDS011;60755;51.374;10.662;2023-07-20T01:22:47;12.52;;;11.18;;
72676;SDS011;60755;51.374;10.662;2023-07-20T01:25:32;14.18;;;12.68;;
72676;SDS011;60755;51.374;10.662;2023-07-20T01:28:19;15.45;;;12.32;;
72676;SDS011;60755;51.374;10.662;2023-07-20T01:31:13;14.52;;;13.02;;
72676;SDS011;60755;51.374;10.662;2023-07-20T01:33:43;15.10;;;13.60;;
72676;SDS011;60755;51.374;10.662;2023-07-20T01:36:12;15.30;;;13.70;;
72676;SDS011;60755;51.374;10.662;2023-07-20T01:38:42;15.30;;;13.55;;
72676;SDS011;60755;51.374;10.662;2023-07-20T01:41:09;12.13;;;11.02;;
72676;SDS011;60755;51.374;10.662;2023-07-20T01:43:37;11.90;;;9.80;;
72676;SDS011;60755;51.374;10.662;2023-07-20T01:46:04;13.05;;;10.63;;
72676;SDS011;60755;51.374;10.662;2023-07-20T01:48:32;8.50;;;7.80;;
72676;SDS011;60755;51.374;10.662;2023-07-20T01:51:01;7.70;;;7.10;;
72676;SDS011;60755;51.374;10.662;2023-07-20T01:53:28;8.15;;;7.32;;
72676;SDS011;60755;51.374;10.662;2023-07-20T01:55:55;6.72;;;6.13;;
72676;SDS011;60755;51.374;10.662;2023-07-20T01:58:23;6.75;;;6.07;;
72676;SDS011;60755;51.374;10.662;2023-07-20T02:00:50;7.15;;;5.57;;
72676;SDS011;60755;51.374;10.662;2023-07-20T02:03:18;5.80;;;5.40;;
72676;SDS011;60755;51.374;10.662;2023-07-20T02:05:48;5.78;;;5.35;;
72676;SDS011;60755;51.374;10.662;2023-07-20T02:08:15;6.00;;;5.60;;
72676;SDS011;60755;51.374;10.662;2023-07-20T02:10:44;6.43;;;5.70;;
72676;SDS011;60755;51.374;10.662;2023-07-20T02:13:12;8.10;;;5.97;;
72676;SDS011;60755;51.374;10.662;2023-07-20T02:15:39;6.82;;;6.20;;
72676;SDS011;60755;51.374;10.662;2023-07-20T02:18:08;9.13;;;6.55;;
72676;SDS011;60755;51.374;10.662;2023-07-20T02:20:35;6.83;;;6.30;;
72676;SDS011;60755;51.374;10.662;2023-07-20T02:23:03;7.75;;;5.95;;
72676;SDS011;60755;51.374;10.662;2023-07-20T02:25:30;6.07;;;5.68;;
72676;SDS011;60755;51.374;10.662;2023-07-20T02:27:57;6.53;;;5.85;;
72676;SDS011;60755;51.374;10.662;2023-07-20T02:30:25;6.65;;;5.50;;
72676;SDS011;60755;51.374;10.662;2023-07-20T02:32:53;6.45;;;5.90;;
72676;SDS011;60755;51.374;10.662;2023-07-20T02:35:21;7.50;;;5.95;;
72676;SDS011;60755;51.374;10.662;2023-07-20T02:37:48;7.55;;;6.65;;
72676;SDS011;60755;51.374;10.662;2023-07-20T02:40:16;7.20;;;6.60;;
72676;SDS011;60755;51.374;10.662;2023-07-20T02:42:43;8.17;;;7.10;;
72676;SDS011;60755;51.374;10.662;2023-07-20T02:45:10;7.07;;;6.47;;
72676;SDS011;60755;51.374;10.662;2023-07-20T02:47:37;10.55;;;6.85;;
72676;SDS011;60755;51.374;10.662;2023-07-20T02:50:06;8.80;;;6.75;;
72676;SDS011;60755;51.374;10.662;2023-07-20T02:52:34;7.60;;;7.00;;
72676;SDS011;60755;51.374;10.662;2023-07-20T02:55:01;8.30;;;7.37;;
72676;SDS011;60755;51.374;10.662;2023-07-20T02:57:30;8.33;;;7.53;;
72676;SDS011;60755;51.374;10.662;2023-07-20T02:59:57;9.13;;;7.90;;
72676;SDS011;60755;51.374;10.662;2023-07-20T03:02:23;9.43;;;8.43;;
72676;SDS011;60755;51.374;10.662;2023-07-20T03:04:51;8.83;;;8.03;;
72676;SDS011;60755;51.374;10.662;2023-07-20T03:07:18;9.00;;;8.27;;
72676;SDS011;60755;51.374;10.662;2023-07-20T03:09:45;10.93;;;9.00;;
72676;SDS011;60755;51.374;10.662;2023-07-20T03:12:11;8.73;;;7.90;;
72676;SDS011;60755;51.374;10.662;2023-07-20T03:14:40;7.90;;;7.17;;
72676;SDS011;60755;51.374;10.662;2023-07-20T03:17:07;9.67;;;8.27;;
72676;SDS011;60755;51.374;10.662;2023-07-20T03:19:34;12.35;;;9.02;;
72676;SDS011;60755;51.374;10.662;2023-07-20T03:22:01;8.60;;;7.80;;
72676;SDS011;60755;51.374;10.662;2023-07-20T03:24:29;8.37;;;7.57;;
72676;SDS011;60755;51.374;10.662;2023-07-20T03:26:57;8.50;;;7.70;;
72676;SDS011;60755;51.374;10.662;2023-07-20T03:29:24;8.77;;;7.93;;
72676;SDS011;60755;51.374;10.662;2023-07-20T03:31:52;8.30;;;7.17;;
72676;SDS011;60755;51.374;10.662;2023-07-20T03:34:19;11.90;;;7.63;;
72676;SDS011;60755;51.374;10.662;2023-07-20T03:36:46;7.93;;;7.27;;
72676;SDS011;60755;51.374;10.662;2023-07-20T03:39:13;7.93;;;7.10;;
72676;SDS011;60755;51.374;10.662;2023-07-20T03:41:40;7.87;;;7.07;;
72676;SDS011;60755;51.374;10.662;2023-07-20T03:44:08;7.50;;;6.70;;
72676;SDS011;60755;51.374;10.662;2023-07-20T03:46:35;7.45;;;6.75;;
72676;SDS011;60755;51.374;10.662;2023-07-20T03:49:04;7.60;;;7.00;;
72676;SDS011;60755;51.374;10.662;2023-07-20T03:51:31;6.78;;;6.18;;
72676;SDS011;60755;51.374;10.662;2023-07-20T03:53:58;6.40;;;5.80;;
72676;SDS011;60755;51.374;10.662;2023-07-20T03:56:25;7.65;;;6.47;;
72676;SDS011;60755;51.374;10.662;2023-07-20T03:58:53;7.10;;;6.40;;
72676;SDS011;60755;51.374;10.662;2023-07-20T04:01:29;6.57;;;5.97;;
72676;SDS011;60755;51.374;10.662;2023-07-20T04:04:05;7.68;;;5.78;;
72676;SDS011;60755;51.374;10.662;2023-07-20T04:06:33;6.20;;;5.60;;
72676;SDS011;60755;51.374;10.662;2023-07-20T04:09:01;6.00;;;5.57;;
72676;SDS011;60755;51.374;10.662;2023-07-20T04:11:28;5.47;;;5.07;;
72676;SDS011;60755;51.374;10.662;2023-07-20T04:13:55;7.13;;;5.05;;
72676;SDS011;60755;51.374;10.662;2023-07-20T04:16:22;5.88;;;5.03;;
72676;SDS011;60755;51.374;10.662;2023-07-20T04:18:49;6.10;;;5.63;;
72676;SDS011;60755;51.374;10.662;2023-07-20T04:21:17;5.80;;;5.40;;
72676;SDS011;60755;51.374;10.662;2023-07-20T04:23:44;6.05;;;5.55;;
72676;SDS011;60755;51.374;10.662;2023-07-20T04:26:11;5.90;;;5.35;;
72676;SDS011;60755;51.374;10.662;2023-07-20T04:28:40;5.63;;;5.22;;
72676;SDS011;60755;51.374;10.662;2023-07-20T04:31:11;7.15;;;6.45;;
72676;SDS011;60755;51.374;10.662;2023-07-20T04:33:39;6.88;;;6.28;;
72676;SDS011;60755;51.374;10.662;2023-07-20T04:36:06;7.13;;;5.82;;
72676;SDS011;60755;51.374;10.662;2023-07-20T04:38:36;6.57;;;6.07;;
72676;SDS011;60755;51.374;10.662;2023-07-20T04:41:22;8.27;;;6.10;;
72676;SDS011;60755;51.374;10.662;2023-07-20T04:43:53;6.82;;;5.45;;
72676;SDS011;60755;51.374;10.662;2023-07-20T04:46:28;6.22;;;5.72;;
72676;SDS011;60755;51.374;10.662;2023-07-20T04:48:56;5.85;;;5.25;;
72676;SDS011;60755;51.374;10.662;2023-07-20T04:51:25;5.88;;;5.47;;
72676;SDS011;60755;51.374;10.662;2023-07-20T04:53:55;5.82;;;5.43;;
72676;SDS011;60755;51.374;10.662;2023-07-20T04:56:23;5.97;;;5.38;;
72676;SDS011;60755;51.374;10.662;2023-07-20T04:58:52;6.10;;;5.05;;
72676;SDS011;60755;51.374;10.662;2023-07-20T05:01:19;4.70;;;4.40;;
72676;SDS011;60755;51.374;10.662;2023-07-20T05:03:46;4.85;;;4.45;;
72676;SDS011;60755;51.374;10.662;2023-07-20T05:06:14;4.65;;;4.32;;
72676;SDS011;60755;51.374;10.662;2023-07-20T05:08:41;4.93;;;4.53;;
72676;SDS011;60755;51.374;10.662;2023-07-20T05:11:09;5.20;;;4.63;;
72676;SDS011;60755;51.374;10.662;2023-07-20T05:13:36;4.22;;;3.92;;
72676;SDS011;60755;51.374;10.662;2023-07-20T05:16:04;4.38;;;4.00;;
72676;SDS011;60755;51.374;10.662;2023-07-20T05:18:32;5.97;;;5.47;;
72676;SDS011;60755;51.374;10.662;2023-07-20T05:20:59;4.15;;;3.65;;
72676;SDS011;60755;51.374;10.662;2023-07-20T05:23:26;3.20;;;3.00;;
72676;SDS011;60755;51.374;10.662;2023-07-20T05:25:54;4.20;;;3.28;;
72676;SDS011;60755;51.374;10.662;2023-07-20T05:28:23;2.72;;;2.63;;
72676;SDS011;60755;51.374;10.662;2023-07-20T05:30:50;2.88;;;2.67;;
72676;SDS011;60755;51.374;10.662;2023-07-20T05:33:18;2.58;;;2.45;;
72676;SDS011;60755;51.374;10.662;2023-07-20T05:35:45;3.20;;;3.00;;
72676;SDS011;60755;51.374;10.662;2023-07-20T05:38:12;2.60;;;2.50;;
72676;SDS011;60755;51.374;10.662;2023-07-20T05:40:40;2.38;;;2.28;;
72676;SDS011;60755;51.374;10.662;2023-07-20T05:43:08;2.08;;;2.00;;
72676;SDS011;60755;51.374;10.662;2023-07-20T05:45:36;4.07;;;2.28;;
72676;SDS011;60755;51.374;10.662;2023-07-20T05:48:03;2.35;;;2.22;;
72676;SDS011;60755;51.374;10.662;2023-07-20T05:50:31;2.60;;;2.50;;
72676;SDS011;60755;51.374;10.662;2023-07-20T05:52:58;2.42;;;2.22;;
72676;SDS011;60755;51.374;10.662;2023-07-20T05:55:25;2.75;;;2.63;;
72676;SDS011;60755;51.374;10.662;2023-07-20T05:57:52;2.83;;;2.72;;
72676;SDS011;60755;51.374;10.662;2023-07-20T06:00:21;3.35;;;3.15;;
72676;SDS011;60755;51.374;10.662;2023-07-20T06:02:53;3.17;;;2.97;;
72676;SDS011;60755;51.374;10.662;2023-07-20T06:05:20;3.95;;;3.72;;
72676;SDS011;60755;51.374;10.662;2023-07-20T06:07:48;4.47;;;4.18;;
72676;SDS011;60755;51.374;10.662;2023-07-20T06:10:15;4.80;;;4.40;;
72676;SDS011;60755;51.374;10.662;2023-07-20T06:12:43;4.60;;;4.30;;
72676;SDS011;60755;51.374;10.662;2023-07-20T06:15:24;5.18;;;4.88;;
72676;SDS011;60755;51.374;10.662;2023-07-20T06:17:53;5.03;;;4.63;;
72676;SDS011;60755;51.374;10.662;2023-07-20T06:20:21;5.22;;;4.70;;
72676;SDS011;60755;51.374;10.662;2023-07-20T06:22:48;4.70;;;4.40;;
72676;SDS011;60755;51.374;10.662;2023-07-20T06:25:16;5.18;;;4.03;;
72676;SDS011;60755;51.374;10.662;2023-07-20T06:27:43;4.70;;;4.30;;
72676;SDS011;60755;51.374;10.662;2023-07-20T06:30:10;4.38;;;3.92;;
72676;SDS011;60755;51.374;10.662;2023-07-20T06:32:38;4.88;;;3.60;;
72676;SDS011;60755;51.374;10.662;2023-07-20T06:35:07;4.30;;;4.00;;
72676;SDS011;60755;51.374;10.662;2023-07-20T06:37:34;4.40;;;4.10;;
72676;SDS011;60755;51.374;10.662;2023-07-20T06:40:01;4.00;;;3.75;;
72676;SDS011;60755;51.374;10.662;2023-07-20T06:42:29;3.70;;;3.50;;
72676;SDS011;60755;51.374;10.662;2023-07-20T06:44:56;3.70;;;3.60;;
72676;SDS011;60755;51.374;10.662;2023-07-20T06:47:23;3.97;;;3.72;;
72676;SDS011;60755;51.374;10.662;2023-07-20T06:49:50;4.00;;;3.80;;
72676;SDS011;60755;51.374;10.662;2023-07-20T06:52:18;4.25;;;4.05;;
72676;SDS011;60755;51.374;10.662;2023-07-20T06:54:45;4.93;;;4.53;;
72676;SDS011;60755;51.374;10.662;2023-07-20T06:57:13;4.80;;;4.40;;
72676;SDS011;60755;51.374;10.662;2023-07-20T06:59:39;4.47;;;4.18;;
72676;SDS011;60755;51.374;10.662;2023-07-20T07:02:07;4.65;;;4.25;;
72676;SDS011;60755;51.374;10.662;2023-07-20T07:04:34;4.85;;;4.45;;
72676;SDS011;60755;51.374;10.662;2023-07-20T07:07:01;4.57;;;4.28;;
72676;SDS011;60755;51.374;10.662;2023-07-20T07:09:30;5.05;;;4.25;;
72676;SDS011;60755;51.374;10.662;2023-07-20T07:11:57;5.13;;;4.82;;
72676;SDS011;60755;51.374;10.662;2023-07-20T07:14:24;4.50;;;4.30;;
72676;SDS011;60755;51.374;10.662;2023-07-20T07:16:51;5.00;;;4.63;;
72676;SDS011;60755;51.374;10.662;2023-07-20T07:19:18;4.72;;;4.43;;
72676;SDS011;60755;51.374;10.662;2023-07-20T07:21:45;4.78;;;4.38;;
72676;SDS011;60755;51.374;10.662;2023-07-20T07:24:13;4.20;;;3.90;;
72676;SDS011;60755;51.374;10.662;2023-07-20T07:26:41;4.63;;;4.30;;
72676;SDS011;60755;51.374;10.662;2023-07-20T07:29:08;3.92;;;3.63;;
72676;SDS011;60755;51.374;10.662;2023-07-20T07:31:35;5.63;;;4.50;;
72676;SDS011;60755;51.374;10.662;2023-07-20T07:34:04;4.20;;;3.97;;
72676;SDS011;60755;51.374;10.662;2023-07-20T07:36:31;4.82;;;4.47;;
72676;SDS011;60755;51.374;10.662;2023-07-20T07:38:58;5.55;;;4.82;;
72676;SDS011;60755;51.374;10.662;2023-07-20T07:41:25;4.60;;;4.30;;
72676;SDS011;60755;51.374;10.662;2023-07-20T07:43:53;4.70;;;4.40;;
72676;SDS011;60755;51.374;10.662;2023-07-20T07:46:20;4.53;;;4.13;;
72676;SDS011;60755;51.374;10.662;2023-07-20T07:48:47;4.15;;;3.85;;
72676;SDS011;60755;51.374;10.662;2023-07-20T07:51:14;5.07;;;4.40;;
72676;SDS011;60755;51.374;10.662;2023-07-20T07:53:41;4.10;;;3.90;;
72676;SDS011;60755;51.374;10.662;2023-07-20T07:56:09;4.18;;;3.88;;
72676;SDS011;60755;51.374;10.662;2023-07-20T07:58:36;7.20;;;4.05;;
72676;SDS011;60755;51.374;10.662;2023-07-20T08:01:04;4.93;;;4.63;;
72676;SDS011;60755;51.374;10.662;2023-07-20T08:03:31;4.60;;;4.30;;
72676;SDS011;60755;51.374;10.662;2023-07-20T08:05:58;5.07;;;4.60;;
72676;SDS011;60755;51.374;10.662;2023-07-20T08:08:26;5.63;;;5.22;;
72676;SDS011;60755;51.374;10.662;2023-07-20T08:11:14;9.73;;;6.60;;
72676;SDS011;60755;51.374;10.662;2023-07-20T08:13:59;5.90;;;5.40;;
72676;SDS011;60755;51.374;10.662;2023-07-20T08:16:34;5.72;;;5.32;;
72676;SDS011;60755;51.374;10.662;2023-07-20T08:19:01;5.68;;;5.30;;
72676;SDS011;60755;51.374;10.662;2023-07-20T08:21:27;5.60;;;5.20;;
72676;SDS011;60755;51.374;10.662;2023-07-20T08:23:54;5.45;;;5.00;;
72676;SDS011;60755;51.374;10.662;2023-07-20T08:26:22;5.45;;;5.07;;
72676;SDS011;60755;51.374;10.662;2023-07-20T08:28:49;6.72;;;5.45;;
72676;SDS011;60755;51.374;10.662;2023-07-20T08:31:16;8.02;;;5.05;;
72676;SDS011;60755;51.374;10.662;2023-07-20T08:33:45;5.10;;;4.80;;
72676;SDS011;60755;51.374;10.662;2023-07-20T08:36:12;4.72;;;4.43;;
72676;SDS011;60755;51.374;10.662;2023-07-20T08:38:39;5.18;;;4.72;;
72676;SDS011;60755;51.374;10.662;2023-07-20T08:41:05;4.28;;;4.07;;
72676;SDS011;60755;51.374;10.662;2023-07-20T08:43:33;4.35;;;4.05;;
72676;SDS011;60755;51.374;10.662;2023-07-20T08:46:00;4.53;;;4.13;;
72676;SDS011;60755;51.374;10.662;2023-07-20T08:48:28;4.43;;;4.13;;
72676;SDS011;60755;51.374;10.662;2023-07-20T08:50:58;8.13;;;4.88;;
72676;SDS011;60755;51.374;10.662;2023-07-20T08:53:29;5.60;;;5.07;;
72676;SDS011;60755;51.374;10.662;2023-07-20T08:56:01;3.22;;;3.13;;
72676;SDS011;60755;51.374;10.662;2023-07-20T08:58:30;3.97;;;3.78;;
72676;SDS011;60755;51.374;10.662;2023-07-20T09:01:00;3.42;;;3.22;;
72676;SDS011;60755;51.374;10.662;2023-07-20T09:03:28;3.20;;;3.00;;
72676;SDS011;60755;51.374;10.662;2023-07-20T09:05:56;3.03;;;2.92;;
72676;SDS011;60755;51.374;10.662;2023-07-20T09:08:24;2.83;;;2.72;;
72676;SDS011;60755;51.374;10.662;2023-07-20T09:10:51;2.95;;;2.75;;
72676;SDS011;60755;51.374;10.662;2023-07-20T09:13:20;3.83;;;2.70;;
72676;SDS011;60755;51.374;10.662;2023-07-20T09:15:47;2.80;;;2.70;;
72676;SDS011;60755;51.374;10.662;2023-07-20T09:18:27;2.50;;;2.40;;
72676;SDS011;60755;51.374;10.662;2023-07-20T09:20:57;3.05;;;2.72;;
72676;SDS011;60755;51.374;10.662;2023-07-20T09:23:31;2.83;;;2.72;;
72676;SDS011;60755;51.374;10.662;2023-07-20T09:25:59;3.03;;;2.92;;
72676;SDS011;60755;51.374;10.662;2023-07-20T09:28:27;2.92;;;2.72;;
72676;SDS011;60755;51.374;10.662;2023-07-20T09:30:55;2.50;;;2.45;;
72676;SDS011;60755;51.374;10.662;2023-07-20T09:33:24;2.60;;;2.50;;
72676;SDS011;60755;51.374;10.662;2023-07-20T09:35:51;2.72;;;2.63;;
72676;SDS011;60755;51.374;10.662;2023-07-20T09:38:18;2.60;;;2.50;;
72676;SDS011;60755;51.374;10.662;2023-07-20T09:40:46;2.60;;;2.40;;
72676;SDS011;60755;51.374;10.662;2023-07-20T09:43:15;2.50;;;2.40;;
72676;SDS011;60755;51.374;10.662;2023-07-20T09:45:42;2.40;;;2.30;;
72676;SDS011;60755;51.374;10.662;2023-07-20T09:48:10;2.08;;;2.08;;
72676;SDS011;60755;51.374;10.662;2023-07-20T09:50:39;2.03;;;2.00;;
72676;SDS011;60755;51.374;10.662;2023-07-20T09:53:09;2.20;;;2.10;;
72676;SDS011;60755;51.374;10.662;2023-07-20T09:55:39;1.85;;;1.85;;
72676;SDS011;60755;51.374;10.662;2023-07-20T09:58:09;1.92;;;1.80;;
72676;SDS011;60755;51.374;10.662;2023-07-20T10:00:37;2.03;;;2.00;;
72676;SDS011;60755;51.374;10.662;2023-07-20T10:03:06;1.85;;;1.85;;
72676;SDS011;60755;51.374;10.662;2023-07-20T10:05:34;1.70;;;1.70;;
72676;SDS011;60755;51.374;10.662;2023-07-20T10:08:02;1.80;;;1.70;;
72676;SDS011;60755;51.374;10.662;2023-07-20T10:10:31;1.70;;;1.70;;
72676;SDS011;60755;51.374;10.662;2023-07-20T10:13:00;1.90;;;1.90;;
72676;SDS011;60755;51.374;10.662;2023-07-20T10:15:33;2.00;;;2.00;;
72676;SDS011;60755;51.374;10.662;2023-07-20T10:18:04;1.90;;;1.90;;
72676;SDS011;60755;51.374;10.662;2023-07-20T10:20:36;1.80;;;1.67;;
72676;SDS011;60755;51.374;10.662;2023-07-20T10:23:06;1.85;;;1.85;;
72676;SDS011;60755;51.374;10.662;2023-07-20T10:25:35;1.70;;;1.70;;
72676;SDS011;60755;51.374;10.662;2023-07-20T10:28:04;1.67;;;1.67;;
72676;SDS011;60755;51.374;10.662;2023-07-20T10:30:34;1.60;;;1.60;;
72676;SDS011;60755;51.374;10.662;2023-07-20T10:33:02;1.70;;;1.60;;
72676;SDS011;60755;51.374;10.662;2023-07-20T10:35:31;1.45;;;1.35;;
72676;SDS011;60755;51.374;10.662;2023-07-20T10:38:17;2.05;;;1.60;;
72676;SDS011;60755;51.374;10.662;2023-07-20T10:40:44;1.20;;;1.20;;
72676;SDS011;60755;51.374;10.662;2023-07-20T10:43:20;1.95;;;1.20;;
72676;SDS011;60755;51.374;10.662;2023-07-20T10:45:49;1.10;;;1.10;;
72676;SDS011;60755;51.374;10.662;2023-07-20T10:48:18;1.38;;;1.38;;
72676;SDS011;60755;51.374;10.662;2023-07-20T10:50:48;1.27;;;1.27;;
72676;SDS011;60755;51.374;10.662;2023-07-20T10:53:37;1.20;;;1.20;;
72676;SDS011;60755;51.374;10.662;2023-07-20T10:56:07;1.00;;;1.00;;
72676;SDS011;60755;51.374;10.662;2023-07-20T10:58:39;2.25;;;1.10;;
72676;SDS011;60755;51.374;10.662;2023-07-20T11:01:07;1.20;;;1.00;;
72676;SDS011;60755;51.374;10.662;2023-07-20T11:03:36;1.15;;;1.00;;
72676;SDS011;60755;51.374;10.662;2023-07-20T11:09:05;1.00;;;1.00;;
72676;SDS011;60755;51.374;10.662;2023-07-20T11:11:36;1.20;;;1.20;;
72676;SDS011;60755;51.374;10.662;2023-07-20T11:14:04;1.05;;;1.05;;
72676;SDS011;60755;51.374;10.662;2023-07-20T11:16:43;1.17;;;1.17;;
72676;SDS011;60755;51.374;10.662;2023-07-20T11:19:15;1.20;;;1.20;;
72676;SDS011;60755;51.374;10.662;2023-07-20T11:21:44;1.00;;;1.00;;
72676;SDS011;60755;51.374;10.662;2023-07-20T11:24:12;1.05;;;1.05;;
72676;SDS011;60755;51.374;10.662;2023-07-20T11:26:40;1.00;;;1.00;;
72676;SDS011;60755;51.374;10.662;2023-07-20T11:29:08;1.02;;;1.02;;
72676;SDS011;60755;51.374;10.662;2023-07-20T11:31:36;0.80;;;0.80;;
72676;SDS011;60755;51.374;10.662;2023-07-20T11:34:04;1.17;;;1.17;;
72676;SDS011;60755;51.374;10.662;2023-07-20T11:36:33;1.00;;;1.00;;
72676;SDS011;60755;51.374;10.662;2023-07-20T11:39:00;1.17;;;0.85;;
72676;SDS011;60755;51.374;10.662;2023-07-20T11:41:30;0.98;;;0.98;;
72676;SDS011;60755;51.374;10.662;2023-07-20T11:43:58;0.90;;;0.90;;
72676;SDS011;60755;51.374;10.662;2023-07-20T11:46:25;1.20;;;1.20;;
72676;SDS011;60755;51.374;10.662;2023-07-20T11:48:56;1.80;;;1.42;;
72676;SDS011;60755;51.374;10.662;2023-07-20T11:51:29;1.27;;;1.27;;
72676;SDS011;60755;51.374;10.662;2023-07-20T11:53:56;1.02;;;1.00;;
72676;SDS011;60755;51.374;10.662;2023-07-20T11:56:24;0.90;;;0.90;;
72676;SDS011;60755;51.374;10.662;2023-07-20T11:58:54;0.88;;;0.88;;
72676;SDS011;60755;51.374;10.662;2023-07-20T12:01:23;1.20;;;1.02;;
72676;SDS011;60755;51.374;10.662;2023-07-20T12:03:50;1.55;;;1.10;;
72676;SDS011;60755;51.374;10.662;2023-07-20T12:06:17;0.90;;;0.90;;
72676;SDS011;60755;51.374;10.662;2023-07-20T12:08:45;1.10;;;1.10;;
72676;SDS011;60755;51.374;10.662;2023-07-20T12:11:13;1.58;;;1.10;;
72676;SDS011;60755;51.374;10.662;2023-07-20T12:13:41;0.98;;;0.98;;
72676;SDS011;60755;51.374;10.662;2023-07-20T12:16:10;1.10;;;1.10;;
72676;SDS011;60755;51.374;10.662;2023-07-20T12:18:38;1.00;;;1.00;;
72676;SDS011;60755;51.374;10.662;2023-07-20T12:21:05;0.90;;;0.90;;
72676;SDS011;60755;51.374;10.662;2023-07-20T12:23:37;1.00;;;1.00;;
72676;SDS011;60755;51.374;10.662;2023-07-20T12:26:10;1.50;;;1.40;;
72676;SDS011;60755;51.374;10.662;2023-07-20T12:28:40;1.10;;;1.10;;
72676;SDS011;60755;51.374;10.662;2023-07-20T12:31:08;1.10;;;1.10;;
72676;SDS011;60755;51.374;10.662;2023-07-20T12:33:36;1.30;;;1.05;;
72676;SDS011;60755;51.374;10.662;2023-07-20T12:36:03;1.10;;;1.10;;
72676;SDS011;60755;51.374;10.662;2023-07-20T12:38:31;1.00;;;1.00;;
72676;SDS011;60755;51.374;10.662;2023-07-20T12:40:59;1.00;;;1.00;;
72676;SDS011;60755;51.374;10.662;2023-07-20T12:43:29;1.10;;;1.10;;
72676;SDS011;60755;51.374;10.662;2023-07-20T12:45:57;1.10;;;1.10;;
72676;SDS011;60755;51.374;10.662;2023-07-20T12:48:24;1.23;;;1.13;;
72676;SDS011;60755;51.374;10.662;2023-07-20T12:50:52;1.75;;;1.08;;
72676;SDS011;60755;51.374;10.662;2023-07-20T12:53:19;0.80;;;0.80;;
72676;SDS011;60755;51.374;10.662;2023-07-20T12:55:46;1.05;;;1.05;;
72676;SDS011;60755;51.374;10.662;2023-07-20T12:58:12;1.00;;;1.00;;
72676;SDS011;60755;51.374;10.662;2023-07-20T13:00:44;3.92;;;0.93;;
72676;SDS011;60755;51.374;10.662;2023-07-20T13:03:11;0.93;;;0.93;;
72676;SDS011;60755;51.374;10.662;2023-07-20T13:05:38;0.90;;;0.90;;
72676;SDS011;60755;51.374;10.662;2023-07-20T13:08:05;0.90;;;0.90;;
72676;SDS011;60755;51.374;10.662;2023-07-20T13:10:32;1.05;;;1.05;;
72676;SDS011;60755;51.374;10.662;2023-07-20T13:13:02;0.80;;;0.80;;
72676;SDS011;60755;51.374;10.662;2023-07-20T13:15:29;0.77;;;0.77;;
72676;SDS011;60755;51.374;10.662;2023-07-20T13:17:59;0.88;;;0.88;;
72676;SDS011;60755;51.374;10.662;2023-07-20T13:20:26;0.82;;;0.82;;
72676;SDS011;60755;51.374;10.662;2023-07-20T13:22:56;0.90;;;0.90;;
72676;SDS011;60755;51.374;10.662;2023-07-20T13:25:23;0.85;;;0.70;;
72676;SDS011;60755;51.374;10.662;2023-07-20T13:27:51;0.88;;;0.88;;
72676;SDS011;60755;51.374;10.662;2023-07-20T13:30:18;1.00;;;1.00;;
72676;SDS011;60755;51.374;10.662;2023-07-20T13:32:46;1.65;;;0.93;;
72676;SDS011;60755;51.374;10.662;2023-07-20T13:35:15;1.10;;;1.10;;
72676;SDS011;60755;51.374;10.662;2023-07-20T13:37:42;1.00;;;1.00;;
72676;SDS011;60755;51.374;10.662;2023-07-20T13:40:09;0.90;;;0.90;;
72676;SDS011;60755;51.374;10.662;2023-07-20T13:42:38;1.30;;;1.20;;
72676;SDS011;60755;51.374;10.662;2023-07-20T13:45:06;0.95;;;0.95;;
72676;SDS011;60755;51.374;10.662;2023-07-20T13:47:33;0.90;;;0.90;;
72676;SDS011;60755;51.374;10.662;2023-07-20T13:50:00;1.00;;;1.00;;
72676;SDS011;60755;51.374;10.662;2023-07-20T13:52:28;2.17;;;1.00;;
72676;SDS011;60755;51.374;10.662;2023-07-20T13:54:55;1.00;;;1.00;;
72676;SDS011;60755;51.374;10.662;2023-07-20T13:57:22;0.90;;;0.90;;
72676;SDS011;60755;51.374;10.662;2023-07-20T13:59:49;1.00;;;1.00;;
72676;SDS011;60755;51.374;10.662;2023-07-20T14:02:16;1.58;;;0.93;;
72676;SDS011;60755;51.374;10.662;2023-07-20T14:04:45;2.28;;;0.90;;
72676;SDS011;60755;51.374;10.662;2023-07-20T14:07:13;0.90;;;0.90;;
72676;SDS011;60755;51.374;10.662;2023-07-20T14:09:42;0.93;;;0.93;;
72676;SDS011;60755;51.374;10.662;2023-07-20T14:12:09;1.00;;;1.00;;
72676;SDS011;60755;51.374;10.662;2023-07-20T14:14:39;1.02;;;1.02;;
72676;SDS011;60755;51.374;10.662;2023-07-20T14:17:07;0.98;;;0.98;;
72676;SDS011;60755;51.374;10.662;2023-07-20T14:19:34;3.13;;;1.15;;
72676;SDS011;60755;51.374;10.662;2023-07-20T14:22:04;1.75;;;1.10;;
72676;SDS011;60755;51.374;10.662;2023-07-20T14:24:31;1.50;;;1.40;;
72676;SDS011;60755;51.374;10.662;2023-07-20T14:26:59;1.38;;;1.20;;
72676;SDS011;60755;51.374;10.662;2023-07-20T14:29:27;1.13;;;1.13;;
72676;SDS011;60755;51.374;10.662;2023-07-20T14:31:58;1.30;;;1.20;;
72676;SDS011;60755;51.374;10.662;2023-07-20T14:34:25;0.95;;;0.95;;
72676;SDS011;60755;51.374;10.662;2023-07-20T14:36:52;1.10;;;1.10;;
72676;SDS011;60755;51.374;10.662;2023-07-20T14:39:19;1.00;;;1.00;;
72676;SDS011;60755;51.374;10.662;2023-07-20T14:41:46;1.00;;;1.00;;
72676;SDS011;60755;51.374;10.662;2023-07-20T14:44:15;2.28;;;1.20;;